sensor_id;sensor_type;location;lat;lon;timestamp;pressure;altitude;pressure_sealevel;temperature;humidity
18436;BME280;9346;52.006;4.720;2023-04-07T00:01:41;101418.13;;;9.30;100.00
18436;BME280;9346;52.006;4.720;2023-04-07T00:04:10;101418.13;;;9.30;100.00
18436;BME280;9346;52.006;4.720;2023-04-07T00:06:37;101418.13;;;9.30;100.00
18436;BME280;9346;52.006;4.720;2023-04-07T00:09:07;101413.22;;;9.32;100.00
18436;BME280;9346;52.006;4.720;2023-04-07T00:11:38;101418.47;;;9.33;100.00
18436;BME280;9346;52.006;4.720;2023-04-07T00:14:05;101419.78;;;9.31;100.00
18436;BME280;9346;52.006;4.720;2023-04-07T00:16:32;101421.72;;;9.30;100.00
18436;BME280;9346;52.006;4.720;2023-04-07T00:18:58;101429.72;;;9.32;100.00
18436;BME280;9346;52.006;4.720;2023-04-07T00:21:27;101431.63;;;9.31;100.00
18436;BME280;9346;52.006;4.720;2023-04-07T00:23:54;101426.97;;;9.32;100.00
18436;BME280;9346;52.006;4.720;2023-04-07T00:26:21;101425.28;;;9.31;100.00
18436;BME280;9346;52.006;4.720;2023-04-07T00:28:49;101433.88;;;9.34;100.00
18436;BME280;9346;52.006;4.720;2023-04-07T00:31:16;101431.13;;;9.34;100.00
18436;BME280;9346;52.006;4.720;2023-04-07T00:33:43;101436.88;;;9.33;100.00
18436;BME280;9346;52.006;4.720;2023-04-07T00:36:12;101441.88;;;9.36;100.00
18436;BME280;9346;52.006;4.720;2023-04-07T00:38:41;101428.38;;;9.34;100.00
18436;BME280;9346;52.006;4.720;2023-04-07T00:41:08;101431.97;;;9.35;100.00
18436;BME280;9346;52.006;4.720;2023-04-07T00:43:35;101425.63;;;9.34;100.00
18436;BME280;9346;52.006;4.720;2023-04-07T00:46:02;101424.22;;;9.32;100.00
18436;BME280;9346;52.006;4.720;2023-04-07T00:48:29;101424.47;;;9.30;100.00
18436;BME280;9346;52.006;4.720;2023-04-07T00:50:56;101430.22;;;9.29;100.00
18436;BME280;9346;52.006;4.720;2023-04-07T00:53:23;101426.88;;;9.27;100.00
18436;BME280;9346;52.006;4.720;2023-04-07T00:55:52;101441.72;;;9.26;100.00
18436;BME280;9346;52.006;4.720;2023-04-07T00:58:19;101433.22;;;9.27;100.00
18436;BME280;9346;52.006;4.720;2023-04-07T01:00:49;101438.13;;;9.25;100.00
18436;BME280;9346;52.006;4.720;2023-04-07T01:03:20;101430.72;;;9.26;100.00
18436;BME280;9346;52.006;4.720;2023-04-07T01:05:54;101425.72;;;9.23;100.00
18436;BME280;9346;52.006;4.720;2023-04-07T01:08:25;101426.22;;;9.20;100.00
18436;BME280;9346;52.006;4.720;2023-04-07T01:10:59;101420.50;;;9.21;100.00
18436;BME280;9346;52.006;4.720;2023-04-07T01:13:32;101421.81;;;9.19;100.00
18436;BME280;9346;52.006;4.720;2023-04-07T01:16:04;101426.72;;;9.17;100.00
18436;BME280;9346;52.006;4.720;2023-04-07T01:18:32;101424.22;;;9.15;100.00
18436;BME280;9346;52.006;4.720;2023-04-07T01:21:03;101417.91;;;9.14;100.00
18436;BME280;9346;52.006;4.720;2023-04-07T01:23:41;101431.63;;;9.14;100.00
18436;BME280;9346;52.006;4.720;2023-04-07T01:26:31;101438.22;;;9.13;100.00
18436;BME280;9346;52.006;4.720;2023-04-07T01:29:33;101433.47;;;9.09;100.00
18436;BME280;9346;52.006;4.720;2023-04-07T01:32:05;101446.41;;;9.08;100.00
18436;BME280;9346;52.006;4.720;2023-04-07T01:34:34;101452.72;;;9.09;100.00
18436;BME280;9346;52.006;4.720;2023-04-07T01:37:03;101450.81;;;9.09;100.00
18436;BME280;9346;52.006;4.720;2023-04-07T01:39:30;101441.72;;;9.09;100.00
18436;BME280;9346;52.006;4.720;2023-04-07T01:41:58;101443.66;;;9.08;100.00
18436;BME280;9346;52.006;4.720;2023-04-07T01:44:27;101446.97;;;9.10;100.00
18436;BME280;9346;52.006;4.720;2023-04-07T01:46:56;101445.31;;;9.09;100.00
18436;BME280;9346;52.006;4.720;2023-04-07T01:49:24;101447.47;;;9.07;100.00
18436;BME280;9346;52.006;4.720;2023-04-07T01:51:52;101457.66;;;9.07;100.00
18436;BME280;9346;52.006;4.720;2023-04-07T01:54:20;101453.81;;;9.08;100.00
18436;BME280;9346;52.006;4.720;2023-04-07T01:56:47;101446.66;;;9.07;100.00
18436;BME280;9346;52.006;4.720;2023-04-07T01:59:15;101447.47;;;9.07;100.00
18436;BME280;9346;52.006;4.720;2023-04-07T02:01:42;101447.47;;;9.07;100.00
18436;BME280;9346;52.006;4.720;2023-04-07T02:04:17;101441.97;;;9.07;100.00
18436;BME280;9346;52.006;4.720;2023-04-07T02:06:49;101439.47;;;9.06;100.00
18436;BME280;9346;52.006;4.720;2023-04-07T02:09:19;101443.56;;;9.03;100.00
18436;BME280;9346;52.006;4.720;2023-04-07T02:11:48;101438.06;;;9.03;100.00
18436;BME280;9346;52.006;4.720;2023-04-07T02:14:17;101445.22;;;9.04;100.00
18436;BME280;9346;52.006;4.720;2023-04-07T02:16:46;101437.81;;;9.05;100.00
18436;BME280;9346;52.006;4.720;2023-04-07T02:19:17;101451.31;;;9.06;100.00
18436;BME280;9346;52.006;4.720;2023-04-07T02:21:45;101447.16;;;9.04;100.00
18436;BME280;9346;52.006;4.720;2023-04-07T02:24:12;101445.22;;;9.04;100.00
18436;BME280;9346;52.006;4.720;2023-04-07T02:26:41;101436.41;;;9.02;100.00
18436;BME280;9346;52.006;4.720;2023-04-07T02:29:08;101442.16;;;9.01;100.00
18436;BME280;9346;52.006;4.720;2023-04-07T02:31:35;101442.97;;;9.01;100.00
18436;BME280;9346;52.006;4.720;2023-04-07T02:34:02;101444.66;;;9.02;100.00
18436;BME280;9346;52.006;4.720;2023-04-07T02:36:31;101438.91;;;9.04;100.00
18436;BME280;9346;52.006;4.720;2023-04-07T02:38:58;101440.31;;;9.06;100.00
18436;BME280;9346;52.006;4.720;2023-04-07T02:41:25;101443.06;;;9.06;100.00
18436;BME280;9346;52.006;4.720;2023-04-07T02:43:52;101444.97;;;9.06;100.00
18436;BME280;9346;52.006;4.720;2023-04-07T02:46:19;101447.97;;;9.04;100.00
18436;BME280;9346;52.006;4.720;2023-04-07T02:48:46;101450.16;;;9.02;100.00
18436;BME280;9346;52.006;4.720;2023-04-07T02:51:13;101446.81;;;9.00;100.00
18436;BME280;9346;52.006;4.720;2023-04-07T02:53:41;101445.16;;;8.99;100.00
18436;BME280;9346;52.006;4.720;2023-04-07T02:56:08;101445.97;;;9.00;100.00
18436;BME280;9346;52.006;4.720;2023-04-07T02:58:35;101440.47;;;9.00;100.00
18436;BME280;9346;52.006;4.720;2023-04-07T03:01:02;101441.56;;;8.99;100.00
18436;BME280;9346;52.006;4.720;2023-04-07T03:03:29;101434.66;;;8.96;100.00
18436;BME280;9346;52.006;4.720;2023-04-07T03:05:56;101446.22;;;8.98;100.00
18436;BME280;9346;52.006;4.720;2023-04-07T03:08:23;101441.81;;;8.97;100.00
18436;BME280;9346;52.006;4.720;2023-04-07T03:10:52;101445.66;;;8.96;100.00
18436;BME280;9346;52.006;4.720;2023-04-07T03:13:19;101448.97;;;8.98;100.00
18436;BME280;9346;52.006;4.720;2023-04-07T03:15:46;101452.78;;;8.97;100.00
18436;BME280;9346;52.006;4.720;2023-04-07T03:18:13;101451.94;;;8.97;100.00
18436;BME280;9346;52.006;4.720;2023-04-07T03:20:40;101453.38;;;8.99;100.00
18436;BME280;9346;52.006;4.720;2023-04-07T03:23:08;101450.63;;;8.99;100.00
18436;BME280;9346;52.006;4.720;2023-04-07T03:25:35;101452.28;;;9.00;100.00
18436;BME280;9346;52.006;4.720;2023-04-07T03:28:05;101455.88;;;9.01;100.00
18436;BME280;9346;52.006;4.720;2023-04-07T03:30:32;101446.22;;;8.98;100.00
18436;BME280;9346;52.006;4.720;2023-04-07T03:32:58;101446.81;;;9.00;100.00
18436;BME280;9346;52.006;4.720;2023-04-07T03:35:25;101455.88;;;9.01;100.00
18436;BME280;9346;52.006;4.720;2023-04-07T03:37:53;101452.28;;;9.00;100.00
18436;BME280;9346;52.006;4.720;2023-04-07T03:40:19;101442.97;;;9.01;100.00
18436;BME280;9346;52.006;4.720;2023-04-07T03:42:47;101444.66;;;9.02;100.00
18436;BME280;9346;52.006;4.720;2023-04-07T03:45:15;101442.97;;;9.01;100.00
18436;BME280;9346;52.006;4.720;2023-04-07T03:47:42;101451.81;;;9.03;100.00
18436;BME280;9346;52.006;4.720;2023-04-07T03:50:09;101446.06;;;9.05;100.00
18436;BME280;9346;52.006;4.720;2023-04-07T03:52:36;101451.56;;;9.05;100.00
18436;BME280;9346;52.006;4.720;2023-04-07T03:55:04;101452.41;;;9.05;100.00
18436;BME280;9346;52.006;4.720;2023-04-07T03:57:31;101452.16;;;9.07;100.00
18436;BME280;9346;52.006;4.720;2023-04-07T03:59:58;101453.81;;;9.08;100.00
18436;BME280;9346;52.006;4.720;2023-04-07T04:02:27;101459.31;;;9.08;100.00
18436;BME280;9346;52.006;4.720;2023-04-07T04:04:54;101464.56;;;9.09;100.00
18436;BME280;9346;52.006;4.720;2023-04-07T04:07:21;101462.38;;;9.11;100.00
18436;BME280;9346;52.006;4.720;2023-04-07T04:09:48;101459.88;;;9.10;100.00
18436;BME280;9346;52.006;4.720;2023-04-07T04:12:15;101472.78;;;9.09;100.00
18436;BME280;9346;52.006;4.720;2023-04-07T04:14:42;101474.44;;;9.10;100.00
18436;BME280;9346;52.006;4.720;2023-04-07T04:17:09;101467.88;;;9.11;100.00
18436;BME280;9346;52.006;4.720;2023-04-07T04:19:37;101474.44;;;9.10;100.00
18436;BME280;9346;52.006;4.720;2023-04-07T04:22:04;101473.59;;;9.10;100.00
18436;BME280;9346;52.006;4.720;2023-04-07T04:24:31;101479.94;;;9.10;100.00
18436;BME280;9346;52.006;4.720;2023-04-07T04:26:58;101479.69;;;9.12;100.00
18436;BME280;9346;52.006;4.720;2023-04-07T04:29:26;101479.94;;;9.10;100.00
18436;BME280;9346;52.006;4.720;2023-04-07T04:31:53;101481.59;;;9.11;100.00
18436;BME280;9346;52.006;4.720;2023-04-07T04:34:20;101483.28;;;9.13;100.00
18436;BME280;9346;52.006;4.720;2023-04-07T04:36:49;101480.53;;;9.13;100.00
18436;BME280;9346;52.006;4.720;2023-04-07T04:39:15;101473.09;;;9.13;100.00
18436;BME280;9346;52.006;4.720;2023-04-07T04:41:43;101479.94;;;9.10;100.00
18436;BME280;9346;52.006;4.720;2023-04-07T04:44:10;101471.38;;;9.07;100.00
18436;BME280;9346;52.006;4.720;2023-04-07T04:46:37;101482.13;;;9.08;100.00
18436;BME280;9346;52.006;4.720;2023-04-07T04:49:04;101474.94;;;9.07;100.00
18436;BME280;9346;52.006;4.720;2023-04-07T04:51:32;101485.69;;;9.09;100.00
18436;BME280;9346;52.006;4.720;2023-04-07T04:54:00;101490.63;;;9.07;100.00
18436;BME280;9346;52.006;4.720;2023-04-07T04:56:28;101492.03;;;9.09;100.00
18436;BME280;9346;52.006;4.720;2023-04-07T04:58:54;101489.28;;;9.09;100.00
18436;BME280;9346;52.006;4.720;2023-04-07T05:01:21;101484.34;;;9.11;100.00
18436;BME280;9346;52.006;4.720;2023-04-07T05:03:48;101486.03;;;9.13;100.00
18436;BME280;9346;52.006;4.720;2023-04-07T05:06:15;101495.09;;;9.13;100.00
18436;BME280;9346;52.006;4.720;2023-04-07T05:08:42;101488.78;;;9.13;100.00
18436;BME280;9346;52.006;4.720;2023-04-07T05:11:11;101498.94;;;9.12;100.00
18436;BME280;9346;52.006;4.720;2023-04-07T05:13:38;101498.09;;;9.11;100.00
18436;BME280;9346;52.006;4.720;2023-04-07T05:16:06;101497.59;;;9.14;100.00
18436;BME280;9346;52.006;4.720;2023-04-07T05:18:33;101502.03;;;9.16;100.00
18436;BME280;9346;52.006;4.720;2023-04-07T05:21:00;101499.84;;;9.18;100.00
18436;BME280;9346;52.006;4.720;2023-04-07T05:23:27;101497.69;;;9.20;100.00
18436;BME280;9346;52.006;4.720;2023-04-07T05:25:54;101498.53;;;9.20;100.00
18436;BME280;9346;52.006;4.720;2023-04-07T05:28:23;101508.69;;;9.20;100.00
18436;BME280;9346;52.006;4.720;2023-04-07T05:30:50;101512.28;;;9.20;100.00
18436;BME280;9346;52.006;4.720;2023-04-07T05:33:17;101512.03;;;9.22;100.00
18436;BME280;9346;52.006;4.720;2023-04-07T05:35:44;101515.59;;;9.22;100.00
18436;BME280;9346;52.006;4.720;2023-04-07T05:38:11;101513.19;;;9.26;100.00
18436;BME280;9346;52.006;4.720;2023-04-07T05:40:38;101519.75;;;9.25;100.00
18436;BME280;9346;52.006;4.720;2023-04-07T05:43:05;101514.78;;;9.22;100.00
18436;BME280;9346;52.006;4.720;2023-04-07T05:45:34;101518.59;;;9.21;100.00
18436;BME280;9346;52.006;4.720;2023-04-07T05:48:01;101513.34;;;9.19;100.00
18436;BME280;9346;52.006;4.720;2023-04-07T05:50:27;101515.28;;;9.19;100.00
18436;BME280;9346;52.006;4.720;2023-04-07T05:52:54;101515.84;;;9.21;100.00
18436;BME280;9346;52.006;4.720;2023-04-07T05:55:21;101515.28;;;9.19;100.00
18436;BME280;9346;52.006;4.720;2023-04-07T05:57:48;101522.44;;;9.20;100.00
18436;BME280;9346;52.006;4.720;2023-04-07T06:00:16;101523.59;;;9.24;100.00
18436;BME280;9346;52.006;4.720;2023-04-07T06:02:46;101533.25;;;9.26;100.00
18436;BME280;9346;52.006;4.720;2023-04-07T06:05:13;101532.19;;;9.27;100.00
18436;BME280;9346;52.006;4.720;2023-04-07T06:07:40;101527.50;;;9.28;100.00
18436;BME280;9346;52.006;4.720;2023-04-07T06:10:07;101531.94;;;9.29;100.00
18436;BME280;9346;52.006;4.720;2023-04-07T06:12:34;101531.94;;;9.29;100.00
18436;BME280;9346;52.006;4.720;2023-04-07T06:15:01;101543.25;;;9.32;100.00
18436;BME280;9346;52.006;4.720;2023-04-07T06:17:29;101541.09;;;9.34;100.00
18436;BME280;9346;52.006;4.720;2023-04-07T06:19:57;101530.09;;;9.34;100.00
18436;BME280;9346;52.006;4.720;2023-04-07T06:22:24;101532.13;;;9.39;100.00
18436;BME280;9346;52.006;4.720;2023-04-07T06:24:51;101532.13;;;9.39;100.00
18436;BME280;9346;52.006;4.720;2023-04-07T06:27:18;101533.78;;;9.40;100.00
18436;BME280;9346;52.006;4.720;2023-04-07T06:29:46;101526.63;;;9.39;100.00
18436;BME280;9346;52.006;4.720;2023-04-07T06:32:13;101535.44;;;9.41;100.00
18436;BME280;9346;52.006;4.720;2023-04-07T06:34:41;101530.28;;;9.44;100.00
18436;BME280;9346;52.006;4.720;2023-04-07T06:37:10;101529.78;;;9.47;100.00
18436;BME280;9346;52.006;4.720;2023-04-07T06:39:37;101539.44;;;9.50;100.00
18436;BME280;9346;52.006;4.720;2023-04-07T06:42:04;101537.28;;;9.52;100.00
18436;BME280;9346;52.006;4.720;2023-04-07T06:44:31;101541.78;;;9.58;100.00
18436;BME280;9346;52.006;4.720;2023-04-07T06:46:58;101543.44;;;9.59;100.00
18436;BME280;9346;52.006;4.720;2023-04-07T06:49:25;101540.19;;;9.62;100.00
18436;BME280;9346;52.006;4.720;2023-04-07T06:51:52;101541.59;;;9.64;100.00
18436;BME280;9346;52.006;4.720;2023-04-07T06:54:21;101537.44;;;9.62;100.00
18436;BME280;9346;52.006;4.720;2023-04-07T06:56:48;101546.28;;;9.64;100.00
18436;BME280;9346;52.006;4.720;2023-04-07T06:59:15;101546.53;;;9.62;100.00
18436;BME280;9346;52.006;4.720;2023-04-07T07:01:42;101554.53;;;9.64;100.00
18436;BME280;9346;52.006;4.720;2023-04-07T07:04:13;101560.84;;;9.64;100.00
18436;BME280;9346;52.006;4.720;2023-04-07T07:06:40;101568.09;;;9.70;100.00
18436;BME280;9346;52.006;4.720;2023-04-07T07:09:07;101563.19;;;9.72;100.00
18436;BME280;9346;52.006;4.720;2023-04-07T07:11:36;101577.75;;;9.73;100.00
18436;BME280;9346;52.006;4.720;2023-04-07T07:14:04;101573.09;;;9.73;100.00
18436;BME280;9346;52.006;4.720;2023-04-07T07:16:31;101573.34;;;9.72;100.00
18436;BME280;9346;52.006;4.720;2023-04-07T07:18:58;101576.34;;;9.70;100.00
18436;BME280;9346;52.006;4.720;2023-04-07T07:21:27;101574.94;;;9.68;100.00
18436;BME280;9346;52.006;4.720;2023-04-07T07:23:54;101578.50;;;9.68;100.00
18436;BME280;9346;52.006;4.720;2023-04-07T07:26:21;101576.78;;;9.62;100.00
18436;BME280;9346;52.006;4.720;2023-04-07T07:28:49;101584.69;;;9.59;100.00
18436;BME280;9346;52.006;4.720;2023-04-07T07:31:17;101589.09;;;9.60;100.00
18436;BME280;9346;52.006;4.720;2023-04-07T07:33:43;101593.19;;;9.57;100.00
18436;BME280;9346;52.006;4.720;2023-04-07T07:36:12;101589.09;;;9.60;100.00
18436;BME280;9346;52.006;4.720;2023-04-07T07:38:39;101587.19;;;9.60;100.00
18436;BME280;9346;52.006;4.720;2023-04-07T07:41:06;101594.94;;;9.63;100.00
18436;BME280;9346;52.006;4.720;2023-04-07T07:43:34;101601.63;;;9.67;100.00
18436;BME280;9346;52.006;4.720;2023-04-07T07:46:04;101601.38;;;9.69;100.00
18436;BME280;9346;52.006;4.720;2023-04-07T07:48:31;101598.97;;;9.72;100.00
18436;BME280;9346;52.006;4.720;2023-04-07T07:50:58;101609.78;;;9.79;100.00
18436;BME280;9346;52.006;4.720;2023-04-07T07:53:24;101601.88;;;9.82;100.00
18436;BME280;9346;52.006;4.720;2023-04-07T07:55:51;101598.28;;;9.82;100.00
18436;BME280;9346;52.006;4.720;2023-04-07T07:58:20;101606.28;;;9.83;100.00
18436;BME280;9346;52.006;4.720;2023-04-07T08:00:47;101606.88;;;9.85;100.00
18436;BME280;9346;52.006;4.720;2023-04-07T08:03:15;101615.13;;;9.85;100.00
18436;BME280;9346;52.006;4.720;2023-04-07T08:05:44;101617.63;;;9.87;100.00
18436;BME280;9346;52.006;4.720;2023-04-07T08:08:11;101608.03;;;9.89;100.00
18436;BME280;9346;52.006;4.720;2023-04-07T08:10:38;101619.88;;;9.90;100.00
18436;BME280;9346;52.006;4.720;2023-04-07T08:13:05;101618.19;;;9.89;100.00
18436;BME280;9346;52.006;4.720;2023-04-07T08:15:32;101617.13;;;9.90;100.00
18436;BME280;9346;52.006;4.720;2023-04-07T08:17:59;101617.13;;;9.90;100.00
18436;BME280;9346;52.006;4.720;2023-04-07T08:20:30;101618.19;;;9.89;100.00
18436;BME280;9346;52.006;4.720;2023-04-07T08:22:58;101627.53;;;9.88;100.00
18436;BME280;9346;52.006;4.720;2023-04-07T08:25:26;101632.53;;;9.91;100.00
18436;BME280;9346;52.006;4.720;2023-04-07T08:27:53;101628.13;;;9.90;100.00
18436;BME280;9346;52.006;4.720;2023-04-07T08:30:20;101635.31;;;9.91;100.00
18436;BME280;9346;52.006;4.720;2023-04-07T08:32:47;101644.16;;;9.93;100.00
18436;BME280;9346;52.006;4.720;2023-04-07T08:35:15;101642.31;;;9.98;100.00
18436;BME280;9346;52.006;4.720;2023-04-07T08:37:43;101640.13;;;10.00;100.00
18436;BME280;9346;52.006;4.720;2023-04-07T08:40:11;101647.06;;;10.03;100.00
18436;BME280;9346;52.006;4.720;2023-04-07T08:42:40;101641.56;;;10.03;100.00
18436;BME280;9346;52.006;4.720;2023-04-07T08:45:08;101644.31;;;10.03;100.00
18436;BME280;9346;52.006;4.720;2023-04-07T08:47:36;101642.38;;;10.03;100.00
18436;BME280;9346;52.006;4.720;2023-04-07T08:50:05;101642.75;;;10.07;100.00
18436;BME280;9346;52.006;4.720;2023-04-07T08:52:34;101638.66;;;10.09;100.00
18436;BME280;9346;52.006;4.720;2023-04-07T08:55:08;101643.91;;;10.11;100.00
18436;BME280;9346;52.006;4.720;2023-04-07T08:57:35;101653.81;;;10.12;100.00
18436;BME280;9346;52.006;4.720;2023-04-07T09:00:07;101648.31;;;10.12;100.00
18436;BME280;9346;52.006;4.720;2023-04-07T09:02:35;101652.75;;;10.13;100.00
18436;BME280;9346;52.006;4.720;2023-04-07T09:05:04;101653.91;;;10.17;100.00
18436;BME280;9346;52.006;4.720;2023-04-07T09:07:33;101656.56;;;10.12;100.00
18436;BME280;9346;52.006;4.720;2023-04-07T09:10:00;101659.06;;;10.13;100.00
18436;BME280;9346;52.006;4.720;2023-04-07T09:12:30;101659.66;;;10.15;100.00
18436;BME280;9346;52.006;4.720;2023-04-07T09:14:57;101656.66;;;10.17;100.00
18436;BME280;9346;52.006;4.720;2023-04-07T09:17:24;101656.66;;;10.17;100.00
18436;BME280;9346;52.006;4.720;2023-04-07T09:19:52;101656.06;;;10.15;100.00
18436;BME280;9346;52.006;4.720;2023-04-07T09:22:37;101664.31;;;10.15;100.00
18436;BME280;9346;52.006;4.720;2023-04-07T09:25:15;101664.31;;;10.15;100.00
18436;BME280;9346;52.006;4.720;2023-04-07T09:27:57;101662.75;;;10.19;100.00
18436;BME280;9346;52.006;4.720;2023-04-07T09:30:25;101665.03;;;10.22;100.00
18436;BME280;9346;52.006;4.720;2023-04-07T09:32:53;101660.31;;;10.22;100.00
18436;BME280;9346;52.006;4.720;2023-04-07T09:35:20;101666.16;;;10.26;100.00
18436;BME280;9346;52.006;4.720;2023-04-07T09:38:01;101663.97;;;10.28;100.00
18436;BME280;9346;52.006;4.720;2023-04-07T09:40:29;101666.22;;;10.31;100.00
18436;BME280;9346;52.006;4.720;2023-04-07T09:42:58;101666.47;;;10.29;100.00
18436;BME280;9346;52.006;4.720;2023-04-07T09:45:26;101674.00;;;10.34;100.00
18436;BME280;9346;52.006;4.720;2023-04-07T09:47:53;101677.34;;;10.36;100.00
18436;BME280;9346;52.006;4.720;2023-04-07T09:50:31;101673.50;;;10.37;100.00
18436;BME280;9346;52.006;4.720;2023-04-07T09:53:00;101676.25;;;10.37;100.00
18436;BME280;9346;52.006;4.720;2023-04-07T09:55:27;101674.94;;;10.39;100.00
18436;BME280;9346;52.006;4.720;2023-04-07T09:57:55;101675.19;;;10.38;100.00
18436;BME280;9346;52.006;4.720;2023-04-07T10:00:23;101680.34;;;10.34;100.00
18436;BME280;9346;52.006;4.720;2023-04-07T10:02:50;101675.09;;;10.33;100.00
18436;BME280;9346;52.006;4.720;2023-04-07T10:05:17;101681.69;;;10.32;100.00
18436;BME280;9346;52.006;4.720;2023-04-07T10:07:46;101678.44;;;10.35;100.00
18436;BME280;9346;52.006;4.720;2023-04-07T10:10:13;101680.09;;;10.36;100.00
18436;BME280;9346;52.006;4.720;2023-04-07T10:12:41;101673.75;;;10.35;100.00
18436;BME280;9346;52.006;4.720;2023-04-07T10:15:11;101678.00;;;10.43;100.00
18436;BME280;9346;52.006;4.720;2023-04-07T10:17:44;101685.41;;;10.42;100.00
18436;BME280;9346;52.006;4.720;2023-04-07T10:20:14;101682.66;;;10.42;100.00
18436;BME280;9346;52.006;4.720;2023-04-07T10:22:47;101679.34;;;10.40;100.00
18436;BME280;9346;52.006;4.720;2023-04-07T10:25:17;101676.63;;;10.45;100.00
18436;BME280;9346;52.006;4.720;2023-04-07T10:27:47;101691.00;;;10.47;100.00
18436;BME280;9346;52.006;4.720;2023-04-07T10:30:22;101690.00;;;10.53;100.00
18436;BME280;9346;52.006;4.720;2023-04-07T10:32:53;101690.59;;;10.55;100.00
18436;BME280;9346;52.006;4.720;2023-04-07T10:35:20;101694.41;;;10.54;100.00
18436;BME280;9346;52.006;4.720;2023-04-07T10:38:11;101704.06;;;10.57;100.00
18436;BME280;9346;52.006;4.720;2023-04-07T10:40:41;101702.81;;;10.64;100.00
18436;BME280;9346;52.006;4.720;2023-04-07T10:43:08;101697.31;;;10.64;100.00
18436;BME280;9346;52.006;4.720;2023-04-07T10:45:55;101700.91;;;10.65;100.00
18436;BME280;9346;52.006;4.720;2023-04-07T10:48:26;101703.16;;;10.68;100.00
18436;BME280;9346;52.006;4.720;2023-04-07T10:51:13;101707.06;;;10.72;100.00
18436;BME280;9346;52.006;4.720;2023-04-07T10:57:10;101706.81;;;10.73;100.00
18436;BME280;9346;52.006;4.720;2023-04-07T10:59:40;101709.25;;;10.70;100.00
18436;BME280;9346;52.006;4.720;2023-04-07T11:02:33;101716.44;;;10.71;100.00
18436;BME280;9346;52.006;4.720;2023-04-07T11:05:02;101707.31;;;10.70;100.00
18436;BME280;9346;52.006;4.720;2023-04-07T11:07:54;101715.84;;;10.69;100.00
18436;BME280;9346;52.006;4.720;2023-04-07T11:10:22;101718.84;;;10.67;100.00
18436;BME280;9346;52.006;4.720;2023-04-07T11:13:00;101723.59;;;10.72;100.00
18436;BME280;9346;52.006;4.720;2023-04-07T11:15:27;101720.34;;;10.75;100.00
18436;BME280;9346;52.006;4.720;2023-04-07T11:18:15;101727.84;;;10.79;100.00
18436;BME280;9346;52.006;4.720;2023-04-07T11:20:49;101726.22;;;10.83;100.00
18436;BME280;9346;52.006;4.720;2023-04-07T11:23:18;101724.56;;;10.82;100.00
18436;BME280;9346;52.006;4.720;2023-04-07T11:25:47;101731.59;;;10.73;100.00
18436;BME280;9346;52.006;4.720;2023-04-07T11:28:14;101729.94;;;10.72;100.00
18436;BME280;9346;52.006;4.720;2023-04-07T11:30:45;101731.00;;;10.71;100.00
18436;BME280;9346;52.006;4.720;2023-04-07T11:33:17;101736.53;;;10.71;100.00
18436;BME280;9346;52.006;4.720;2023-04-07T11:35:50;101735.22;;;10.74;100.00
18436;BME280;9346;52.006;4.720;2023-04-07T11:38:18;101738.53;;;10.76;100.00
18436;BME280;9346;52.006;4.720;2023-04-07T11:40:45;101734.63;;;10.72;100.00
18436;BME280;9346;52.006;4.720;2023-04-07T11:43:16;101740.38;;;10.70;100.00
18436;BME280;9346;52.006;4.720;2023-04-07T11:45:44;101737.06;;;10.68;100.00
18436;BME280;9346;52.006;4.720;2023-04-07T11:48:32;101745.84;;;10.65;100.00
18436;BME280;9346;52.006;4.720;2023-04-07T11:51:01;101750.75;;;10.63;100.00
18436;BME280;9346;52.006;4.720;2023-04-07T11:53:30;101749.16;;;10.67;100.00
18436;BME280;9346;52.006;4.720;2023-04-07T11:55:59;101752.25;;;10.71;100.00
18436;BME280;9346;52.006;4.720;2023-04-07T11:58:26;101762.78;;;10.74;100.00
18436;BME280;9346;52.006;4.720;2023-04-07T12:00:53;101760.56;;;10.76;100.00
18436;BME280;9346;52.006;4.720;2023-04-07T12:03:22;101762.25;;;10.77;100.00
18436;BME280;9346;52.006;4.720;2023-04-07T12:05:49;101770.13;;;10.68;100.00
18436;BME280;9346;52.006;4.720;2023-04-07T12:08:18;101770.38;;;10.67;100.00
18436;BME280;9346;52.006;4.720;2023-04-07T12:10:45;101769.78;;;10.65;100.00
18436;BME280;9346;52.006;4.720;2023-04-07T12:13:13;101766.19;;;10.64;100.00
18436;BME280;9346;52.006;4.720;2023-04-07T12:15:40;101764.03;;;10.66;100.00
18436;BME280;9346;52.006;4.720;2023-04-07T12:18:07;101772.03;;;10.68;100.00
18436;BME280;9346;52.006;4.720;2023-04-07T12:20:34;101766.78;;;10.66;100.00
18436;BME280;9346;52.006;4.720;2023-04-07T12:23:01;101773.69;;;10.69;100.00
18436;BME280;9346;52.006;4.720;2023-04-07T12:25:31;101772.63;;;10.70;100.00
18436;BME280;9346;52.006;4.720;2023-04-07T12:27:57;101774.53;;;10.69;100.00
18436;BME280;9346;52.006;4.720;2023-04-07T12:30:24;101774.28;;;10.71;100.00
18436;BME280;9346;52.006;4.720;2023-04-07T12:32:51;101768.53;;;10.72;100.00
18436;BME280;9346;52.006;4.720;2023-04-07T12:35:18;101772.88;;;10.68;100.00
18436;BME280;9346;52.006;4.720;2023-04-07T12:37:46;101781.97;;;10.69;100.00
18436;BME280;9346;52.006;4.720;2023-04-07T12:40:12;101777.28;;;10.69;100.00
18436;BME280;9346;52.006;4.720;2023-04-07T12:42:41;101785.56;;;10.69;100.00
18436;BME280;9346;52.006;4.720;2023-04-07T12:45:09;101785.31;;;10.71;100.00
18436;BME280;9346;52.006;4.720;2023-04-07T12:47:36;101778.72;;;10.72;100.00
18436;BME280;9346;52.006;4.720;2023-04-07T12:50:03;101780.91;;;10.70;100.00
18436;BME280;9346;52.006;4.720;2023-04-07T12:52:31;101778.16;;;10.70;100.00
18436;BME280;9346;52.006;4.720;2023-04-07T12:54:58;101773.94;;;10.67;100.00
18436;BME280;9346;52.006;4.720;2023-04-07T12:57:25;101781.41;;;10.67;100.00
18436;BME280;9346;52.006;4.720;2023-04-07T12:59:54;101788.06;;;10.71;100.00
18436;BME280;9346;52.006;4.720;2023-04-07T13:02:21;101792.22;;;10.73;100.00
18436;BME280;9346;52.006;4.720;2023-04-07T13:04:48;101791.72;;;10.76;100.00
18436;BME280;9346;52.006;4.720;2023-04-07T13:07:15;101799.00;;;10.82;100.00
18436;BME280;9346;52.006;4.720;2023-04-07T13:09:42;101795.13;;;10.83;100.00